Gistel, Belgium
Current Conditions -  °F | °C
As of 4:50 PM on Monday 24 Nov 2014 (Local Time) from EBOS Reporting Station
Few Clouds Few Clouds  
Wind Chill: 41°   Ceiling: Unl
Heat Index: 45°   Visibility: 6mi
Dew Point: 39°   Wind: 6mph
Humidity: 81%   Direction: 10°N
Pressure: 30.3"   Gusts: NA
Location:  51.16°N, 2.96°E
Report Text: EBOS 241550Z 01005KT 9999 FEW023 07/04 Q1026 NOSIG
Loading
Personal Weather Stations






























Interactive Weather Map New forecast layout! Learn more

10-Day Weather Forecast

Advertisements
Track Severe Weather on mobile